Ocean City, MD

2:24 PM EST on January 26, 2015 (GMT -0500)
Sussex County | Change Station
CLOSE
Current Station
Airport
Location: Georgetown,
Elevation: 52 ft
Nearby Weather Stations

Elev 52 ft 38.69 °N, 75.36 °W | Updated 30 minutes ago

Rain
Rain
39 °F
Feels Like 31 °F
N
14
Wind Variable Wind from NNE
Gusts 23 mph

Today
High -- | Low -- °F
--% Chance of Precip.
Yesterday
High -- | Low -- °F
Precip. -- in
7:10 AM 5:15 PM
Waxing Crescent, 46% visible
Pressure 29.67 in
Visibility 5.0 miles
Clouds Mostly Cloudy 700 ft
Overcast 1500 ft
Windchill 31 °F
Dew Point 36 °F
Humidity 89%
Rainfall 0.14 in
Snow Depth Not available.
UV 1 out of 12
Pollen .10 out of 12
Air Quality Not available.
Flu Activity Not available.
METAR KGED 261854Z AUTO 02012G20KT 5SM -RA BR BKN007 OVC015 04/02 A2966 RMK AO2 SLP045 P0011 T00390022

More Conditions Fewer Conditions

Pressure 29.67 in
Visibility 5.0 miles
Clouds Mostly Cloudy 700 ft
Overcast 1500 ft
Windchill 31 °F
Dew Point 36 °F
Humidity 89%
Rainfall 0.14 in
Snow Depth Not available.
UV 1 out of 12
Pollen .10 out of 12
Air Quality Not available.
Flu Activity Not available.
METAR KGED 261854Z AUTO 02012G20KT 5SM -RA BR BKN007 OVC015 04/02 A2966 RMK AO2 SLP045 P0011 T00390022

More Conditions Fewer Conditions

10-Day Weather Forecast

Almanac

Astronomy

Jan. 26, 2015 Rise Set
Actual Time
Civil Twilight
Nautical Twilight
Astronomical Twilight
Moon
Length of Visible Light
Length of Day
Tomorrow will be .
, % of the Moon is Illuminated

Today's Extremes

State Highs State Lows

Community

WunderPhotos

Upload Photos

1,790,337 photos uploaded!

WunderBlogs® & News

Nearby

Air Quality

  Air Quality AQ Index Pollutant
Not available.

Snow Depth

Station Depth Elevation

Earthquake Activity

City Distance Mag. Time & Date
Minimum magnitude displayed is 2.5.

Coastal Water Temperatures

Place Temperature

Nearby Weather Stations